createdAt,value
2019-06-07T00:02:06.415Z,22.67
2019-06-07T00:04:38.483Z,22.65
2019-06-07T00:07:12.581Z,22.61
2019-06-07T00:09:44.459Z,22.60
2019-06-07T00:12:17.604Z,22.57
2019-06-07T00:14:50.239Z,22.54
2019-06-07T00:17:22.676Z,22.51
2019-06-07T00:19:54.685Z,22.49
2019-06-07T00:22:33.114Z,22.43
2019-06-07T00:25:00.884Z,22.38
2019-06-07T00:27:32.940Z,22.37
2019-06-07T00:30:32.765Z,22.32
2019-06-07T00:32:40.765Z,22.31
2019-06-07T00:35:15.450Z,22.29
2019-06-07T00:37:46.642Z,22.23
2019-06-07T00:40:29.977Z,22.15
2019-06-07T00:42:52.416Z,22.10
2019-06-07T00:45:24.897Z,22.05
2019-06-07T00:47:56.989Z,21.99
2019-06-07T00:50:29.233Z,21.94
2019-06-07T00:53:21.625Z,21.88
2019-06-07T00:55:35.566Z,21.82
2019-06-07T00:58:07.587Z,21.78
2019-06-07T01:00:39.545Z,21.77
2019-06-07T01:03:12.712Z,21.77
2019-06-07T01:05:45.527Z,21.76
2019-06-07T01:08:21.516Z,21.71
2019-06-07T01:10:53.935Z,21.69
2019-06-07T01:13:26.970Z,21.67
2019-06-07T01:15:59.025Z,21.67
2019-06-07T01:18:39.049Z,21.63
2019-06-07T01:21:05.207Z,21.55
2019-06-07T01:26:11.028Z,21.46
2019-06-07T01:28:43.328Z,21.40
2019-06-07T01:31:17.715Z,21.39
2019-06-07T01:33:51.156Z,21.37
2019-06-07T01:36:25.243Z,21.38
2019-06-07T01:38:56.756Z,21.39
2019-06-07T01:41:30.677Z,21.49
2019-06-07T01:44:02.633Z,21.61
2019-06-07T01:46:35.004Z,21.67
2019-06-07T01:49:07.235Z,21.63
2019-06-07T01:51:39.441Z,21.59
2019-06-07T01:54:49.664Z,21.58
2019-06-07T01:56:46.861Z,21.60
2019-06-07T01:59:21.974Z,21.65
2019-06-07T02:01:52.540Z,21.69
2019-06-07T02:04:27.343Z,21.69
2019-06-07T02:06:58.059Z,21.67
2019-06-07T02:09:32.018Z,21.67
2019-06-07T02:12:24.771Z,21.68
2019-06-07T02:14:37.587Z,21.72
2019-06-07T02:17:09.860Z,21.80
2019-06-07T02:19:41.822Z,21.86
2019-06-07T02:22:14.229Z,21.88
2019-06-07T02:24:46.682Z,21.92
2019-06-07T02:27:20.458Z,22.00
2019-06-07T02:29:52.663Z,22.06
2019-06-07T02:32:29.818Z,22.12
2019-06-07T02:34:59.051Z,22.24
2019-06-07T02:37:34.109Z,22.37
2019-06-07T02:40:08.018Z,22.54
2019-06-07T02:42:42.595Z,22.67
2019-06-07T02:45:13.681Z,22.82
2019-06-07T02:47:47.197Z,22.87
2019-06-07T02:50:19.303Z,22.90
2019-06-07T02:52:51.136Z,22.92
2019-06-07T02:55:27.382Z,22.98
2019-06-07T02:57:56.273Z,23.03
2019-06-07T03:01:08.959Z,23.17
2019-06-07T03:03:22.700Z,23.34
2019-06-07T03:05:54.704Z,23.52
2019-06-07T03:08:28.259Z,23.69
2019-06-07T03:11:00.078Z,23.86
2019-06-07T03:13:37.746Z,24.00
2019-06-07T03:16:12.399Z,24.14
2019-06-07T03:18:58.289Z,24.23
2019-06-07T03:21:33.718Z,24.31
2019-06-07T03:24:04.772Z,24.37
2019-06-07T03:27:30.352Z,24.46
2019-06-07T03:29:10.051Z,24.51
2019-06-07T03:31:47.778Z,24.58
2019-06-07T03:34:15.933Z,24.65
2019-06-07T03:36:48.205Z,24.76
2019-06-07T03:39:20.272Z,24.85
2019-06-07T03:42:05.812Z,24.94
2019-06-07T03:44:28.640Z,25.09
2019-06-07T03:46:59.858Z,25.20
2019-06-07T03:49:37.561Z,25.26
2019-06-07T03:52:05.424Z,25.34
2019-06-07T03:54:39.779Z,25.31
2019-06-07T03:57:11.206Z,25.20
2019-06-07T03:59:43.581Z,25.32
2019-06-07T04:02:15.951Z,25.38
2019-06-07T04:04:47.915Z,25.45
2019-06-07T04:07:20.089Z,25.52
2019-06-07T04:09:52.465Z,25.59
2019-06-07T04:12:24.429Z,25.67
2019-06-07T04:14:56.503Z,25.72
2019-06-07T04:17:32.059Z,25.64
2019-06-07T04:20:03.044Z,25.64
2019-06-07T04:22:37.575Z,25.75
2019-06-07T04:25:09.455Z,25.80
2019-06-07T04:27:41.563Z,25.92
2019-06-07T04:30:13.517Z,25.87
2019-06-07T04:32:45.375Z,25.91
2019-06-07T04:35:17.545Z,25.90
2019-06-07T04:37:49.413Z,25.96
2019-06-07T04:40:21.574Z,26.02
2019-06-07T04:42:53.640Z,26.10
2019-06-07T04:45:40.266Z,26.12
2019-06-07T04:47:59.853Z,26.22
2019-06-07T04:50:35.356Z,26.40
2019-06-07T04:53:07.138Z,26.54
2019-06-07T04:55:41.608Z,26.57
2019-06-07T04:58:13.013Z,26.70
2019-06-07T05:00:52.768Z,26.67
2019-06-07T05:03:19.096Z,26.68
2019-06-07T05:05:51.366Z,26.71
2019-06-07T05:08:28.480Z,26.87
2019-06-07T05:10:57.653Z,26.96
2019-06-07T05:13:31.507Z,27.12
2019-06-07T05:16:03.530Z,27.32
2019-06-07T05:18:39.700Z,27.36
2019-06-07T05:21:09.513Z,27.35
2019-06-07T05:24:05.603Z,27.35
2019-06-07T05:26:15.081Z,27.32
2019-06-07T05:28:47.053Z,27.35
2019-06-07T05:31:19.218Z,27.44
2019-06-07T05:33:51.189Z,27.48
2019-06-07T05:36:23.560Z,27.63
2019-06-07T05:38:55.627Z,27.63
2019-06-07T05:41:27.698Z,27.69
2019-06-07T05:44:12.233Z,27.80
2019-06-07T05:46:38.633Z,27.88
2019-06-07T05:49:08.307Z,27.95
2019-06-07T05:51:44.395Z,27.91
2019-06-07T05:54:13.983Z,27.82
2019-06-07T05:56:46.144Z,27.85
2019-06-07T05:59:18.325Z,28.00
2019-06-07T06:02:01.946Z,28.06
2019-06-07T06:04:23.781Z,28.10
2019-06-07T06:06:55.745Z,27.89
2019-06-07T06:09:28.121Z,27.78
2019-06-07T06:12:02.426Z,27.82
2019-06-07T06:14:35.379Z,27.77
2019-06-07T06:17:07.086Z,27.97
2019-06-07T06:19:40.665Z,27.97
2019-06-07T06:22:13.161Z,28.02
2019-06-07T06:25:17.692Z,28.06
2019-06-07T06:28:02.703Z,28.25
2019-06-07T06:29:52.576Z,28.28
2019-06-07T06:32:41.600Z,28.33
2019-06-07T06:34:58.314Z,28.18
2019-06-07T06:37:32.977Z,28.35
2019-06-07T06:40:06.273Z,28.33
2019-06-07T06:42:39.635Z,28.47
2019-06-07T06:45:11.816Z,28.36
2019-06-07T06:47:47.199Z,28.65
2019-06-07T06:50:17.273Z,28.86
2019-06-07T06:52:54.220Z,29.18
2019-06-07T06:55:23.144Z,29.55
2019-06-07T06:57:55.524Z,29.64
2019-06-07T07:00:50.346Z,29.88
2019-06-07T07:03:56.426Z,30.29
2019-06-07T07:05:53.316Z,30.37
2019-06-07T07:08:23.554Z,30.46
2019-06-07T07:10:55.855Z,30.58
2019-06-07T07:13:28.093Z,30.64
2019-06-07T07:16:00.362Z,30.67
2019-06-07T07:18:33.008Z,30.63
2019-06-07T07:21:05.723Z,30.80
2019-06-07T07:23:38.230Z,30.64
2019-06-07T07:26:10.597Z,30.55
2019-06-07T07:28:45.391Z,30.69
2019-06-07T07:31:17.970Z,30.79
2019-06-07T07:36:38.926Z,30.31
2019-06-07T07:39:04.502Z,30.26
2019-06-07T07:41:30.546Z,30.28
2019-06-07T07:44:07.145Z,30.40
2019-06-07T07:46:36.417Z,30.56
2019-06-07T07:49:08.484Z,30.72
2019-06-07T07:51:40.652Z,30.79
2019-06-07T07:54:12.874Z,31.03
2019-06-07T07:56:45.747Z,31.16
2019-06-07T07:59:18.799Z,31.13
2019-06-07T08:01:53.096Z,31.31
2019-06-07T08:05:12.353Z,31.58
2019-06-07T08:06:59.189Z,31.56
2019-06-07T08:09:31.267Z,31.56
2019-06-07T08:12:03.428Z,31.43
2019-06-07T08:14:35.726Z,31.19
2019-06-07T08:17:07.767Z,30.83
2019-06-07T08:19:39.744Z,30.62
2019-06-07T08:22:12.009Z,30.63
2019-06-07T08:24:44.399Z,30.48
2019-06-07T08:27:26.072Z,30.31
2019-06-07T08:30:10.189Z,30.28
2019-06-07T08:32:28.067Z,30.49
2019-06-07T08:35:06.057Z,30.77
2019-06-07T08:38:14.280Z,31.12
2019-06-07T08:40:08.040Z,31.31
2019-06-07T08:42:59.909Z,31.50
2019-06-07T08:45:14.532Z,31.28
2019-06-07T08:47:46.813Z,31.28
2019-06-07T08:50:20.570Z,31.24
2019-06-07T08:52:56.325Z,30.98
2019-06-07T08:55:26.285Z,30.74
2019-06-07T08:58:04.193Z,30.65
2019-06-07T09:00:48.111Z,30.34
2019-06-07T09:03:07.420Z,30.12
2019-06-07T09:05:39.586Z,29.97
2019-06-07T09:08:29.207Z,30.06
2019-06-07T09:10:45.351Z,30.06
2019-06-07T09:13:17.421Z,29.96
2019-06-07T09:15:49.276Z,30.14
2019-06-07T09:18:40.856Z,30.24
2019-06-07T09:20:55.641Z,30.06
2019-06-07T09:23:28.488Z,29.99
2019-06-07T09:26:15.340Z,29.95
2019-06-07T09:28:34.644Z,29.95
2019-06-07T09:31:10.391Z,29.79
2019-06-07T09:33:40.412Z,29.57
2019-06-07T09:36:13.344Z,29.28
2019-06-07T09:38:45.682Z,29.21
2019-06-07T09:41:17.851Z,29.08
2019-06-07T09:44:21.392Z,29.38
2019-06-07T09:46:24.044Z,29.49
2019-06-07T09:49:26.338Z,29.61
2019-06-07T09:51:29.405Z,29.66
2019-06-07T09:54:06.874Z,30.02
2019-06-07T09:56:35.183Z,30.25
2019-06-07T09:59:12.307Z,30.50
2019-06-07T10:01:40.550Z,30.53
2019-06-07T10:04:28.550Z,30.47
2019-06-07T10:06:48.425Z,30.11
2019-06-07T10:11:58.089Z,30.03
2019-06-07T10:14:30.423Z,30.17
2019-06-07T10:17:03.291Z,30.31
2019-06-07T10:19:35.588Z,30.58
2019-06-07T10:22:07.888Z,30.79
2019-06-07T10:24:39.837Z,30.55
2019-06-07T10:27:11.592Z,30.48
2019-06-07T10:29:43.860Z,30.37
2019-06-07T10:32:15.927Z,30.44
2019-06-07T10:34:47.796Z,30.45
2019-06-07T10:37:19.769Z,30.69
2019-06-07T10:39:51.933Z,30.63
2019-06-07T10:42:24.623Z,30.35
2019-06-07T10:44:57.197Z,30.54
2019-06-07T10:47:28.958Z,30.66
2019-06-07T10:50:03.785Z,30.99
2019-06-07T10:52:36.730Z,31.91
2019-06-07T10:55:08.679Z,32.62
2019-06-07T10:57:42.455Z,33.23
2019-06-07T11:00:14.519Z,33.23
2019-06-07T11:02:46.387Z,33.03
2019-06-07T11:05:19.292Z,32.92
2019-06-07T11:07:51.715Z,33.46
2019-06-07T11:10:23.721Z,33.76
2019-06-07T11:12:55.994Z,34.38
2019-06-07T11:15:28.171Z,34.80
2019-06-07T11:18:00.448Z,34.84
2019-06-07T11:20:32.403Z,34.83
2019-06-07T11:23:04.270Z,34.99
2019-06-07T11:25:36.233Z,34.56
2019-06-07T11:28:08.609Z,34.35
2019-06-07T11:30:40.467Z,34.42
2019-06-07T11:33:14.830Z,34.21
2019-06-07T11:35:46.853Z,34.04
2019-06-07T11:38:20.044Z,34.04
2019-06-07T11:40:53.979Z,34.39
2019-06-07T11:43:26.734Z,35.12
2019-06-07T11:45:58.902Z,35.60
2019-06-07T11:48:31.640Z,35.97
2019-06-07T11:51:06.549Z,36.27
2019-06-07T11:53:38.482Z,36.23
2019-06-07T11:56:11.853Z,35.64
2019-06-07T11:58:43.830Z,35.74
2019-06-07T12:01:17.136Z,36.12
2019-06-07T12:03:49.601Z,36.37
2019-06-07T12:06:21.775Z,36.71
2019-06-07T12:08:54.506Z,36.24
2019-06-07T12:11:26.523Z,36.43
2019-06-07T12:13:58.798Z,37.12
2019-06-07T12:16:30.762Z,36.95
2019-06-07T12:19:03.491Z,36.89
2019-06-07T12:21:35.809Z,37.14
2019-06-07T12:24:07.619Z,37.49
2019-06-07T12:26:39.853Z,38.07
2019-06-07T12:29:12.786Z,38.67
2019-06-07T12:31:44.703Z,39.30
2019-06-07T12:34:17.594Z,40.13
2019-06-07T12:36:49.757Z,40.80
2019-06-07T12:39:22.263Z,41.20
2019-06-07T12:41:54.613Z,41.54
2019-06-07T12:44:26.943Z,40.55
2019-06-07T12:46:59.379Z,39.97
2019-06-07T12:49:31.635Z,39.16
2019-06-07T12:52:03.489Z,38.63
2019-06-07T12:54:35.464Z,38.02
2019-06-07T12:57:07.741Z,37.59
2019-06-07T12:59:40.110Z,38.06
2019-06-07T13:02:12.379Z,38.23
2019-06-07T13:04:44.551Z,38.68
2019-06-07T13:07:21.966Z,39.11
2019-06-07T13:09:54.123Z,39.07
2019-06-07T13:12:26.391Z,38.77
2019-06-07T13:14:58.671Z,38.17
2019-06-07T13:17:30.839Z,37.26
2019-06-07T13:20:02.638Z,37.64
2019-06-07T13:22:35.004Z,36.84
2019-06-07T13:25:06.931Z,35.72
2019-06-07T13:27:38.900Z,35.95
2019-06-07T13:30:12.298Z,37.35
2019-06-07T13:32:44.261Z,38.48
2019-06-07T13:35:18.169Z,39.05
2019-06-07T13:37:51.174Z,38.48
2019-06-07T13:40:25.123Z,38.03
2019-06-07T13:42:57.665Z,37.34
2019-06-07T13:45:29.832Z,36.68
2019-06-07T13:48:02.311Z,36.28
2019-06-07T13:50:34.394Z,35.80
2019-06-07T13:53:06.760Z,35.40
2019-06-07T13:55:39.131Z,35.06
2019-06-07T13:58:10.993Z,34.93
2019-06-07T14:00:44.499Z,34.89
2019-06-07T14:03:20.308Z,34.84
2019-06-07T14:05:50.191Z,34.78
2019-06-07T14:08:23.378Z,34.86
2019-06-07T14:10:55.566Z,35.10
2019-06-07T14:13:28.156Z,35.43
2019-06-07T14:16:00.378Z,35.90
2019-06-07T14:18:32.445Z,37.18
2019-06-07T14:21:04.817Z,38.63
2019-06-07T14:23:48.367Z,40.00
2019-06-07T14:26:10.180Z,41.25
2019-06-07T14:28:42.252Z,41.80
2019-06-07T14:31:14.219Z,42.25
2019-06-07T14:33:47.115Z,41.86
2019-06-07T14:36:20.913Z,40.00
2019-06-07T14:38:53.129Z,35.69
2019-06-07T14:41:25.269Z,33.00
2019-06-07T14:43:59.520Z,30.55
2019-06-07T14:46:32.263Z,28.85
2019-06-07T14:49:05.146Z,27.99
2019-06-07T14:51:37.322Z,27.44
2019-06-07T14:54:09.487Z,27.01
2019-06-07T14:56:41.552Z,27.24
2019-06-07T14:59:15.585Z,27.45
2019-06-07T15:01:48.685Z,27.69
2019-06-07T15:04:26.540Z,28.25
2019-06-07T15:07:00.265Z,28.64
2019-06-07T15:09:33.068Z,29.41
2019-06-07T15:12:05.212Z,29.67
2019-06-07T15:14:37.615Z,29.46
2019-06-07T15:17:09.732Z,29.22
2019-06-07T15:19:41.714Z,29.07
2019-06-07T15:22:13.475Z,30.19
2019-06-07T15:24:45.652Z,31.21
2019-06-07T15:27:18.038Z,32.22
2019-06-07T15:29:49.988Z,33.16
2019-06-07T15:32:22.358Z,34.27
2019-06-07T15:34:54.550Z,35.44
2019-06-07T15:37:26.489Z,36.60
2019-06-07T15:39:58.660Z,37.75
2019-06-07T15:42:42.948Z,38.73
2019-06-07T15:45:07.333Z,39.54
2019-06-07T15:47:40.617Z,40.04
2019-06-07T15:50:12.868Z,40.37
2019-06-07T15:52:45.290Z,40.62
2019-06-07T15:55:18.542Z,40.89
2019-06-07T15:57:51.797Z,40.75
2019-06-07T16:00:24.807Z,41.11
2019-06-07T16:02:57.560Z,41.29
2019-06-07T16:05:31.869Z,40.73
2019-06-07T16:08:04.636Z,39.41
2019-06-07T16:10:38.936Z,38.19
2019-06-07T16:13:12.793Z,37.20
2019-06-07T16:15:45.047Z,36.08
2019-06-07T16:18:17.355Z,35.14
2019-06-07T16:20:49.211Z,34.45
2019-06-07T16:23:21.799Z,34.10
2019-06-07T16:25:53.750Z,34.01
2019-06-07T16:28:25.912Z,33.67
2019-06-07T16:30:58.087Z,33.33
2019-06-07T16:33:30.788Z,32.97
2019-06-07T16:36:05.076Z,32.62
2019-06-07T16:38:40.167Z,32.23
2019-06-07T16:41:15.783Z,31.75
2019-06-07T16:43:52.892Z,31.39
2019-06-07T16:46:29.971Z,31.03
2019-06-07T16:49:05.749Z,30.88
2019-06-07T16:51:41.313Z,31.15
2019-06-07T16:54:15.085Z,31.60
2019-06-07T16:56:51.222Z,31.80
2019-06-07T16:59:24.018Z,31.89
2019-06-07T17:01:56.846Z,31.59
2019-06-07T17:04:28.803Z,31.12
2019-06-07T17:07:00.976Z,30.72
2019-06-07T17:09:33.961Z,30.39
2019-06-07T17:12:06.339Z,30.09
2019-06-07T17:14:38.427Z,29.78
2019-06-07T17:17:10.743Z,29.55
2019-06-07T17:19:42.897Z,29.36
2019-06-07T17:22:15.308Z,29.20
2019-06-07T17:24:47.655Z,29.01
2019-06-07T17:27:19.755Z,28.84
2019-06-07T17:29:52.012Z,28.69
2019-06-07T17:32:24.386Z,28.53
2019-06-07T17:34:56.558Z,28.40
2019-06-07T17:37:30.219Z,28.28
2019-06-07T17:40:02.413Z,28.14
2019-06-07T17:42:35.107Z,28.04
2019-06-07T17:45:08.997Z,27.97
2019-06-07T17:47:41.806Z,27.88
2019-06-07T17:50:14.372Z,27.76
2019-06-07T17:52:47.941Z,27.71
2019-06-07T17:55:20.136Z,27.66
2019-06-07T17:57:52.693Z,27.61
2019-06-07T18:00:28.797Z,27.61
2019-06-07T18:03:00.330Z,27.64
2019-06-07T18:05:32.390Z,27.66
2019-06-07T18:08:07.220Z,27.67
2019-06-07T18:10:41.129Z,27.65
2019-06-07T18:13:12.905Z,27.52
2019-06-07T18:15:51.644Z,27.43
2019-06-07T18:18:20.999Z,27.36
2019-06-07T18:20:55.653Z,27.24
2019-06-07T18:23:27.186Z,27.12
2019-06-07T18:26:00.676Z,27.15
2019-06-07T18:28:35.036Z,27.11
2019-06-07T18:31:06.870Z,27.16
2019-06-07T18:33:39.604Z,27.19
2019-06-07T18:36:11.920Z,27.23
2019-06-07T18:38:44.190Z,27.22
2019-06-07T18:41:16.458Z,27.22
2019-06-07T18:43:49.170Z,27.22
2019-06-07T18:46:21.312Z,27.25
2019-06-07T18:48:54.817Z,27.28
2019-06-07T18:51:28.829Z,27.35
2019-06-07T18:54:03.261Z,27.44
2019-06-07T18:56:39.206Z,27.50
2019-06-07T18:59:14.725Z,27.49
2019-06-07T19:01:49.989Z,27.45
2019-06-07T19:04:23.781Z,27.42
2019-06-07T19:06:56.410Z,27.33
2019-06-07T19:09:28.557Z,27.34
2019-06-07T19:12:00.683Z,27.30
2019-06-07T19:14:37.085Z,27.21
2019-06-07T19:17:07.074Z,27.17
2019-06-07T19:19:39.292Z,27.14
2019-06-07T19:22:11.816Z,27.06
2019-06-07T19:24:45.083Z,27.03
2019-06-07T19:27:17.279Z,26.94
2019-06-07T19:29:50.783Z,26.89
2019-06-07T19:32:23.199Z,26.79
2019-06-07T19:34:55.322Z,26.73
2019-06-07T19:37:27.826Z,26.63
2019-06-07T19:40:00.274Z,26.49
2019-06-07T19:42:32.680Z,26.44
2019-06-07T19:45:28.843Z,26.33
2019-06-07T19:47:40.345Z,26.20
2019-06-07T19:50:12.506Z,26.14
2019-06-07T19:52:44.469Z,26.00
2019-06-07T19:55:16.963Z,25.93
2019-06-07T19:57:50.187Z,25.92
2019-06-07T20:00:22.201Z,25.84
2019-06-07T20:02:55.741Z,25.68
2019-06-07T20:05:27.665Z,25.58
2019-06-07T20:08:00.604Z,25.53
2019-06-07T20:10:32.710Z,25.52
2019-06-07T20:13:05.350Z,25.55
2019-06-07T20:15:37.469Z,25.52
2019-06-07T20:18:09.956Z,25.45
2019-06-07T20:20:42.129Z,25.36
2019-06-07T20:23:14.563Z,25.29
2019-06-07T20:25:46.570Z,25.17
2019-06-07T20:28:18.756Z,25.15
2019-06-07T20:30:52.284Z,25.18
2019-06-07T20:33:24.226Z,25.23
2019-06-07T20:35:56.672Z,25.27
2019-06-07T20:38:28.669Z,25.28
2019-06-07T20:41:01.153Z,25.26
2019-06-07T20:43:34.708Z,25.18
2019-06-07T20:46:08.180Z,25.17
2019-06-07T20:48:40.305Z,25.15
2019-06-07T20:51:12.165Z,25.13
2019-06-07T20:53:44.536Z,25.13
2019-06-07T20:56:17.114Z,25.11
2019-06-07T20:58:49.489Z,25.08
2019-06-07T21:01:21.864Z,25.08
2019-06-07T21:03:54.354Z,25.02
2019-06-07T21:06:26.310Z,24.98
2019-06-07T21:08:59.340Z,24.94
2019-06-07T21:11:31.368Z,24.91
2019-06-07T21:14:06.135Z,24.88
2019-06-07T21:16:38.470Z,24.85
2019-06-07T21:19:14.414Z,24.81
2019-06-07T21:21:48.880Z,24.79
2019-06-07T21:24:22.040Z,24.74
2019-06-07T21:26:57.224Z,24.70
2019-06-07T21:29:31.396Z,24.68
2019-06-07T21:32:03.806Z,24.66
2019-06-07T21:34:36.025Z,24.66
2019-06-07T21:37:09.996Z,24.70
2019-06-07T21:39:42.337Z,24.71
2019-06-07T21:42:14.268Z,24.70
2019-06-07T21:44:46.634Z,24.68
2019-06-07T21:47:19.156Z,24.69
2019-06-07T21:49:51.235Z,24.72
2019-06-07T21:52:26.449Z,24.75
2019-06-07T21:54:58.888Z,24.78
2019-06-07T21:57:31.177Z,24.78
2019-06-07T22:00:11.488Z,24.79
2019-06-07T22:02:47.683Z,24.73
2019-06-07T22:05:19.734Z,24.60
2019-06-07T22:07:51.905Z,24.47
2019-06-07T22:10:24.171Z,24.39
2019-06-07T22:12:55.930Z,24.30
2019-06-07T22:15:34.050Z,24.34
2019-06-07T22:18:01.598Z,24.38
2019-06-07T22:20:33.972Z,24.39
2019-06-07T22:23:06.537Z,24.43
2019-06-07T22:25:38.416Z,24.39
2019-06-07T22:28:10.726Z,24.31
2019-06-07T22:30:42.762Z,24.20
2019-06-07T22:33:15.130Z,24.08
2019-06-07T22:35:47.110Z,23.94
2019-06-07T22:38:19.180Z,23.87
2019-06-07T22:40:51.560Z,23.83
2019-06-07T22:43:24.138Z,23.80
2019-06-07T22:45:55.994Z,23.81
2019-06-07T22:48:28.265Z,23.79
2019-06-07T22:51:02.282Z,23.80
2019-06-07T22:53:36.300Z,23.84
2019-06-07T22:56:10.104Z,23.85
2019-06-07T22:58:41.873Z,23.89
2019-06-07T23:01:14.564Z,23.90
2019-06-07T23:03:47.444Z,23.90
2019-06-07T23:06:19.515Z,23.88
2019-06-07T23:08:51.894Z,23.87
2019-06-07T23:11:23.873Z,23.91
2019-06-07T23:13:56.030Z,23.92
2019-06-07T23:16:28.105Z,23.94
2019-06-07T23:19:00.080Z,23.97
2019-06-07T23:21:32.140Z,23.93
2019-06-07T23:24:04.303Z,23.91
2019-06-07T23:26:36.069Z,23.92
2019-06-07T23:29:08.132Z,23.88
2019-06-07T23:31:40.090Z,23.81
2019-06-07T23:34:13.010Z,23.72
2019-06-07T23:36:44.961Z,23.69
2019-06-07T23:39:17.224Z,23.70
2019-06-07T23:41:49.092Z,23.70
2019-06-07T23:44:21.485Z,23.72
2019-06-07T23:46:53.442Z,23.74
2019-06-07T23:49:25.818Z,23.73
2019-06-07T23:51:58.293Z,23.58
2019-06-07T23:54:30.457Z,23.41
2019-06-07T23:57:02.733Z,23.33
2019-06-07T23:59:35.107Z,23.30
